createdAt,value
2018-10-21T00:00:00.866Z,6.78
2018-10-21T00:02:29.875Z,6.70
2018-10-21T00:04:58.890Z,7.53
2018-10-21T00:07:27.833Z,6.58
2018-10-21T00:09:56.789Z,6.60
2018-10-21T00:12:25.730Z,6.72
2018-10-21T00:14:54.724Z,7.00
2018-10-21T00:17:23.818Z,6.75
2018-10-21T00:19:52.726Z,6.55
2018-10-21T00:22:21.657Z,6.83
2018-10-21T00:24:50.976Z,6.90
2018-10-21T00:27:20.596Z,7.00
2018-10-21T00:29:49.524Z,6.28
2018-10-21T00:32:18.446Z,6.47
2018-10-21T00:34:47.379Z,6.47
2018-10-21T00:37:16.304Z,7.05
2018-10-21T00:39:45.275Z,6.58
2018-10-21T00:42:14.201Z,7.22
2018-10-21T00:44:43.132Z,6.92
2018-10-21T00:47:12.062Z,6.50
2018-10-21T00:49:40.990Z,6.50
2018-10-21T00:52:09.906Z,6.97
2018-10-21T00:54:39.054Z,6.50
2018-10-21T00:57:07.976Z,6.50
2018-10-21T00:59:37.116Z,6.55
2018-10-21T01:02:06.679Z,6.80
2018-10-21T01:04:35.591Z,6.50
2018-10-21T01:07:04.540Z,6.87
2018-10-21T01:09:33.561Z,6.90
2018-10-21T01:12:02.450Z,6.50
2018-10-21T01:14:31.376Z,6.78
2018-10-21T01:17:00.317Z,6.87
2018-10-21T01:19:29.267Z,6.42
2018-10-21T01:21:58.175Z,6.60
2018-10-21T01:24:27.078Z,6.55
2018-10-21T01:26:56.075Z,6.37
2018-10-21T01:29:25.151Z,6.87
2018-10-21T01:31:54.079Z,6.75
2018-10-21T01:34:22.986Z,6.92
2018-10-21T01:36:51.982Z,6.75
2018-10-21T01:40:34.543Z,6.75
2018-10-21T01:43:04.286Z,6.60
2018-10-21T01:45:33.212Z,6.92
2018-10-21T01:48:03.244Z,6.83
2018-10-21T01:50:32.490Z,7.40
2018-10-21T01:53:03.470Z,7.00
2018-10-21T01:55:32.475Z,6.97
2018-10-21T01:58:01.962Z,7.92
2018-10-21T02:00:31.498Z,7.65
2018-10-21T02:03:00.788Z,7.20
2018-10-21T02:05:30.532Z,7.08
2018-10-21T02:07:59.808Z,7.50
2018-10-21T02:10:28.732Z,7.22
2018-10-21T02:12:57.682Z,7.58
2018-10-21T02:15:26.606Z,6.72
2018-10-21T02:17:55.924Z,7.47
2018-10-21T02:20:25.292Z,7.40
2018-10-21T02:22:54.398Z,7.50
2018-10-21T02:25:23.329Z,7.53
2018-10-21T02:27:52.752Z,6.67
2018-10-21T02:30:23.849Z,6.97
2018-10-21T02:32:53.324Z,7.53
2018-10-21T02:35:22.848Z,6.72
2018-10-21T02:37:52.261Z,7.03
2018-10-21T02:41:34.442Z,7.28
2018-10-21T02:44:04.041Z,7.45
2018-10-21T02:46:33.385Z,7.67
2018-10-21T02:49:02.988Z,7.37
2018-10-21T02:51:31.880Z,7.90
2018-10-21T02:54:00.819Z,7.30
2018-10-21T02:56:29.789Z,7.60
2018-10-21T02:58:58.706Z,7.25
2018-10-21T03:01:27.637Z,7.37
2018-10-21T03:03:56.616Z,7.83
2018-10-21T03:06:25.881Z,7.37
2018-10-21T03:08:54.841Z,7.95
2018-10-21T03:11:23.951Z,7.65
2018-10-21T03:13:52.889Z,7.80
2018-10-21T03:16:21.801Z,8.30
2018-10-21T03:18:51.099Z,7.80
2018-10-21T03:21:20.131Z,7.78
2018-10-21T03:23:49.128Z,8.00
2018-10-21T03:26:18.077Z,7.37
2018-10-21T03:28:47.220Z,8.08
2018-10-21T03:31:16.128Z,8.55
2018-10-21T03:33:45.084Z,8.00
2018-10-21T03:36:14.204Z,8.55
2018-10-21T03:38:43.146Z,8.10
2018-10-21T03:41:12.442Z,9.00
2018-10-21T03:43:41.374Z,8.60
2018-10-21T03:46:11.921Z,8.75
2018-10-21T03:48:41.776Z,8.98
2018-10-21T03:51:10.978Z,9.10
2018-10-21T03:53:39.942Z,8.85
2018-10-21T03:56:08.924Z,8.93
2018-10-21T03:58:37.892Z,10.08
2018-10-21T04:01:07.250Z,9.93
2018-10-21T04:03:36.225Z,9.10
2018-10-21T04:06:05.152Z,9.95
2018-10-21T04:08:34.075Z,10.23
2018-10-21T04:11:03.010Z,10.15
2018-10-21T04:13:31.952Z,9.80
2018-10-21T04:16:00.888Z,9.83
2018-10-21T04:18:30.028Z,10.75
2018-10-21T04:20:58.940Z,9.65
2018-10-21T04:23:27.864Z,10.15
2018-10-21T04:25:56.797Z,10.20
2018-10-21T04:28:25.680Z,10.18
2018-10-21T04:30:54.601Z,10.30
2018-10-21T04:33:53.637Z,11.12
2018-10-21T04:36:24.673Z,10.53
2018-10-21T04:40:14.800Z,11.60
2018-10-21T04:42:44.607Z,10.90
2018-10-21T04:45:15.304Z,11.75
2018-10-21T04:47:44.225Z,10.75
2018-10-21T04:50:13.713Z,11.25
2018-10-21T04:52:42.617Z,10.70
2018-10-21T04:55:13.557Z,11.60
2018-10-21T04:57:43.627Z,10.60
2018-10-21T05:00:15.407Z,11.15
2018-10-21T05:02:44.717Z,11.35
2018-10-21T05:05:14.511Z,11.53
2018-10-21T05:07:43.527Z,11.70
2018-10-21T05:10:22.307Z,13.93
2018-10-21T05:12:51.261Z,11.33
2018-10-21T05:15:19.794Z,11.12
2018-10-21T05:17:48.891Z,12.23
2018-10-21T05:20:17.863Z,11.73
2018-10-21T05:22:46.767Z,12.28
2018-10-21T05:25:15.126Z,12.28
2018-10-21T05:27:44.072Z,12.05
2018-10-21T05:30:13.122Z,11.30
2018-10-21T05:32:42.488Z,12.47
2018-10-21T05:35:13.208Z,11.75
2018-10-21T05:37:42.236Z,11.78
2018-10-21T05:40:13.655Z,11.43
2018-10-21T05:42:42.738Z,13.40
2018-10-21T05:45:11.682Z,11.95
2018-10-21T05:47:40.472Z,11.08
2018-10-21T05:50:09.894Z,11.47
2018-10-21T05:52:38.368Z,11.57
2018-10-21T05:55:07.982Z,12.88
2018-10-21T05:57:37.112Z,12.65
2018-10-21T06:00:11.764Z,12.70
2018-10-21T06:02:40.971Z,12.88
2018-10-21T06:05:43.400Z,11.83
2018-10-21T06:08:12.417Z,11.78
2018-10-21T06:10:41.748Z,12.75
2018-10-21T06:13:11.064Z,12.47
2018-10-21T06:15:40.231Z,12.28
2018-10-21T06:18:25.733Z,11.93
2018-10-21T06:20:57.585Z,12.68
2018-10-21T06:23:26.521Z,12.53
2018-10-21T06:25:55.455Z,11.95
2018-10-21T06:28:24.421Z,11.88
2018-10-21T06:30:53.393Z,11.55
2018-10-21T06:33:29.009Z,12.23
2018-10-21T06:35:58.415Z,11.88
2018-10-21T06:38:27.466Z,12.18
2018-10-21T06:40:56.407Z,13.08
2018-10-21T06:43:25.374Z,12.63
2018-10-21T06:45:54.304Z,12.35
2018-10-21T06:48:23.247Z,12.58
2018-10-21T06:50:52.441Z,12.73
2018-10-21T06:53:21.497Z,13.25
2018-10-21T06:55:50.411Z,13.20
2018-10-21T06:58:19.609Z,13.72
2018-10-21T07:00:48.743Z,13.75
2018-10-21T07:03:17.738Z,13.15
2018-10-21T07:06:22.066Z,13.88
2018-10-21T07:08:52.065Z,13.95
2018-10-21T07:11:20.975Z,15.23
2018-10-21T07:13:49.933Z,14.33
2018-10-21T07:16:18.984Z,15.18
2018-10-21T07:18:54.584Z,14.25
2018-10-21T07:21:23.524Z,15.00
2018-10-21T07:23:52.548Z,14.43
2018-10-21T07:26:21.710Z,13.70
2018-10-21T07:28:50.630Z,14.95
2018-10-21T07:31:19.562Z,15.83
2018-10-21T07:33:48.532Z,14.60
2018-10-21T07:36:17.558Z,15.28
2018-10-21T07:38:46.710Z,17.05
2018-10-21T07:41:15.631Z,17.90
2018-10-21T07:43:44.640Z,18.10
2018-10-21T07:46:13.760Z,17.95
2018-10-21T07:48:42.850Z,17.87
2018-10-21T07:51:11.806Z,18.62
2018-10-21T07:53:40.792Z,17.95
2018-10-21T07:56:09.798Z,17.85
2018-10-21T07:58:38.730Z,17.60
2018-10-21T08:01:07.785Z,17.90
2018-10-21T08:03:36.822Z,17.73
2018-10-21T08:06:29.110Z,17.95
2018-10-21T08:08:58.195Z,18.37
2018-10-21T08:11:27.156Z,16.73
2018-10-21T08:13:56.110Z,18.12
2018-10-21T08:16:25.035Z,17.82
2018-10-21T08:18:54.173Z,16.67
2018-10-21T08:21:23.131Z,16.42
2018-10-21T08:23:52.304Z,17.87
2018-10-21T08:26:21.263Z,17.40
2018-10-21T08:28:50.191Z,16.67
2018-10-21T08:31:19.136Z,19.00
2018-10-21T08:33:48.069Z,17.85
2018-10-21T08:36:17.004Z,17.67
2018-10-21T08:38:45.921Z,15.18
2018-10-21T08:41:14.877Z,16.70
2018-10-21T08:43:43.797Z,15.00
2018-10-21T08:46:12.819Z,16.15
2018-10-21T08:48:41.855Z,15.13
2018-10-21T08:51:10.818Z,13.65
2018-10-21T08:53:39.772Z,11.80
2018-10-21T08:56:08.769Z,12.53
2018-10-21T08:58:37.722Z,11.85
2018-10-21T09:01:07.122Z,12.00
2018-10-21T09:03:36.347Z,10.32
2018-10-21T09:06:05.789Z,9.93
2018-10-21T09:08:34.725Z,10.55
2018-10-21T09:11:04.142Z,9.85
2018-10-21T09:13:33.173Z,7.92
2018-10-21T09:16:02.151Z,9.75
2018-10-21T09:18:31.205Z,9.88
2018-10-21T09:21:00.175Z,10.80
2018-10-21T09:23:29.113Z,11.15
2018-10-21T09:25:58.060Z,11.75
2018-10-21T09:28:26.999Z,13.35
2018-10-21T09:30:55.953Z,13.83
2018-10-21T09:33:25.079Z,13.85
2018-10-21T09:35:54.202Z,13.28
2018-10-21T09:38:23.130Z,11.95
2018-10-21T09:40:52.088Z,10.03
2018-10-21T09:43:21.385Z,8.88
2018-10-21T09:45:50.322Z,9.23
2018-10-21T09:48:19.292Z,9.43
2018-10-21T09:50:48.251Z,8.55
2018-10-21T09:53:17.190Z,7.62
2018-10-21T09:55:46.138Z,6.80
2018-10-21T09:58:15.133Z,6.95
2018-10-21T10:00:49.434Z,6.30
2018-10-21T10:03:18.349Z,6.40
2018-10-21T10:05:47.278Z,6.15
2018-10-21T10:08:16.214Z,6.40
2018-10-21T10:10:45.170Z,6.05
2018-10-21T10:13:14.224Z,6.10
2018-10-21T10:15:43.250Z,6.62
2018-10-21T10:18:12.190Z,5.78
2018-10-21T10:20:41.106Z,5.67
2018-10-21T10:23:10.082Z,5.35
2018-10-21T10:25:38.996Z,5.15
2018-10-21T10:28:07.994Z,5.10
2018-10-21T10:30:37.279Z,5.20
2018-10-21T10:33:06.312Z,4.42
2018-10-21T10:35:35.250Z,5.50
2018-10-21T10:38:04.290Z,5.03
2018-10-21T10:40:33.270Z,5.58
2018-10-21T10:43:02.239Z,6.90
2018-10-21T10:45:31.360Z,6.33
2018-10-21T10:48:00.298Z,4.40
2018-10-21T10:50:29.230Z,4.30
2018-10-21T10:52:58.292Z,3.85
2018-10-21T10:55:32.513Z,3.77
2018-10-21T10:58:01.528Z,4.60
2018-10-21T11:00:30.596Z,4.10
2018-10-21T11:03:05.959Z,4.10
2018-10-21T11:05:34.894Z,4.12
2018-10-21T11:08:03.833Z,4.78
2018-10-21T11:10:33.013Z,4.62
2018-10-21T11:13:02.144Z,5.25
2018-10-21T11:15:31.355Z,5.65
2018-10-21T11:18:00.276Z,5.20
2018-10-21T11:20:29.591Z,5.15
2018-10-21T11:22:58.567Z,4.83
2018-10-21T11:25:27.517Z,5.00
2018-10-21T11:27:56.441Z,4.37
2018-10-21T11:30:25.537Z,4.80
2018-10-21T11:32:54.493Z,4.28
2018-10-21T11:35:23.411Z,4.08
2018-10-21T11:37:52.469Z,4.47
2018-10-21T11:40:21.413Z,4.22
2018-10-21T11:42:50.291Z,4.22
2018-10-21T11:45:19.221Z,4.10
2018-10-21T11:47:48.848Z,3.70
2018-10-21T11:50:17.822Z,3.10
2018-10-21T11:52:47.127Z,4.03
2018-10-21T11:55:16.580Z,3.80
2018-10-21T11:57:45.649Z,3.12
2018-10-21T12:00:14.916Z,2.92
2018-10-21T12:02:44.194Z,2.72
2018-10-21T12:05:13.103Z,2.85
2018-10-21T12:07:42.014Z,2.40
2018-10-21T12:10:11.201Z,2.85
2018-10-21T12:12:40.239Z,2.75
2018-10-21T12:15:09.168Z,2.77
2018-10-21T12:17:38.137Z,2.83
2018-10-21T12:20:07.102Z,2.60
2018-10-21T12:22:36.048Z,2.70
2018-10-21T12:25:05.667Z,2.92
2018-10-21T12:27:34.764Z,3.00
2018-10-21T12:30:04.113Z,2.50
2018-10-21T12:32:33.024Z,2.58
2018-10-21T12:35:02.058Z,2.75
2018-10-21T12:37:31.114Z,2.33
2018-10-21T12:40:00.061Z,2.50
2018-10-21T12:42:29.134Z,2.27
2018-10-21T12:44:58.075Z,2.60
2018-10-21T12:47:26.959Z,2.20
2018-10-21T12:49:55.856Z,2.25
2018-10-21T12:52:24.869Z,2.20
2018-10-21T12:54:53.864Z,2.05
2018-10-21T12:57:22.999Z,2.40
2018-10-21T12:59:51.956Z,1.98
2018-10-21T13:02:21.287Z,2.30
2018-10-21T13:04:50.422Z,2.30
2018-10-21T13:07:19.421Z,2.45
2018-10-21T13:09:48.471Z,2.30
2018-10-21T13:12:17.424Z,2.52
2018-10-21T13:14:46.311Z,2.30
2018-10-21T13:17:15.234Z,2.17
2018-10-21T13:19:44.196Z,1.92
2018-10-21T13:22:13.691Z,2.55
2018-10-21T13:24:42.717Z,2.25
2018-10-21T13:27:11.669Z,2.20
2018-10-21T13:29:40.573Z,2.30
2018-10-21T13:32:09.551Z,2.40
2018-10-21T13:34:38.563Z,2.58
2018-10-21T13:37:07.671Z,1.98
2018-10-21T13:39:36.764Z,2.10
2018-10-21T13:42:06.072Z,2.17
2018-10-21T13:44:35.011Z,2.12
2018-10-21T13:47:03.963Z,2.10
2018-10-21T13:49:32.871Z,2.00
2018-10-21T13:52:02.074Z,2.00
2018-10-21T13:54:30.895Z,2.45
2018-10-21T13:56:59.836Z,2.30
2018-10-21T13:59:28.780Z,2.17
2018-10-21T14:01:57.721Z,2.17
2018-10-21T14:04:26.641Z,2.20
2018-10-21T14:06:55.666Z,2.70
2018-10-21T14:09:24.716Z,2.20
2018-10-21T14:11:53.657Z,2.20
2018-10-21T14:14:22.588Z,2.50
2018-10-21T14:16:51.515Z,2.50
2018-10-21T14:19:20.794Z,2.20
2018-10-21T14:21:49.720Z,1.80
2018-10-21T14:24:18.940Z,1.98
2018-10-21T14:26:47.987Z,1.87
2018-10-21T14:29:17.072Z,2.00
2018-10-21T14:31:46.013Z,2.27
2018-10-21T14:34:14.962Z,2.30
2018-10-21T14:36:43.876Z,2.17
2018-10-21T14:39:13.718Z,2.00
2018-10-21T14:41:42.776Z,1.77
2018-10-21T14:44:11.728Z,2.40
2018-10-21T14:46:40.628Z,2.45
2018-10-21T14:49:10.114Z,2.17
2018-10-21T14:51:39.045Z,1.87
2018-10-21T14:54:08.031Z,2.40
2018-10-21T14:56:37.207Z,2.05
2018-10-21T14:59:06.126Z,1.98
2018-10-21T15:01:35.110Z,1.77
2018-10-21T15:04:04.155Z,1.90
2018-10-21T15:06:33.279Z,2.02
2018-10-21T15:09:02.623Z,2.33
2018-10-21T15:11:31.712Z,1.87
2018-10-21T15:14:00.704Z,2.22
2018-10-21T15:16:29.813Z,1.92
2018-10-21T15:18:58.760Z,1.87
2018-10-21T15:21:27.724Z,2.12
2018-10-21T15:23:56.622Z,2.00
2018-10-21T15:26:25.605Z,2.10
2018-10-21T15:28:54.556Z,2.40
2018-10-21T15:31:23.673Z,2.10
2018-10-21T15:33:52.603Z,3.25
2018-10-21T15:36:21.557Z,2.40
2018-10-21T15:38:50.521Z,2.30
2018-10-21T15:41:19.657Z,2.10
2018-10-21T15:43:48.654Z,2.00
2018-10-21T15:46:17.627Z,1.92
2018-10-21T15:48:46.909Z,6.55
2018-10-21T15:51:16.379Z,2.83
2018-10-21T15:53:45.279Z,2.70
2018-10-21T15:56:14.327Z,2.35
2018-10-21T15:58:43.425Z,2.65
2018-10-21T16:01:12.364Z,2.65
2018-10-21T16:03:41.299Z,2.62
2018-10-21T16:06:10.206Z,3.72
2018-10-21T16:08:39.110Z,3.42
2018-10-21T16:11:08.204Z,2.37
2018-10-21T16:13:37.189Z,2.60
2018-10-21T16:16:06.486Z,2.75
2018-10-21T16:18:35.680Z,3.10
2018-10-21T16:21:05.042Z,2.80
2018-10-21T16:23:33.988Z,3.55
2018-10-21T16:26:03.044Z,5.50
2018-10-21T16:28:32.093Z,4.70
2018-10-21T16:31:01.021Z,5.10
2018-10-21T16:33:29.954Z,6.78
2018-10-21T16:35:58.922Z,8.05
2018-10-21T16:38:27.960Z,6.87
2018-10-21T16:40:57.126Z,6.47
2018-10-21T16:43:26.042Z,5.67
2018-10-21T16:45:56.767Z,7.12
2018-10-21T16:48:25.671Z,7.72
2018-10-21T16:50:54.641Z,5.83
2018-10-21T16:53:23.827Z,5.75
2018-10-21T16:55:52.940Z,5.37
2018-10-21T16:58:21.871Z,5.30
2018-10-21T17:00:57.165Z,5.22
2018-10-21T17:03:26.366Z,5.03
2018-10-21T17:05:55.517Z,4.78
2018-10-21T17:08:24.638Z,4.75
2018-10-21T17:10:53.631Z,4.85
2018-10-21T17:13:22.681Z,4.95
2018-10-21T17:15:51.614Z,4.65
2018-10-21T17:18:20.561Z,6.50
2018-10-21T17:20:49.562Z,4.83
2018-10-21T17:23:18.482Z,5.10
2018-10-21T17:25:47.436Z,5.30
2018-10-21T17:28:16.471Z,5.45
2018-10-21T17:30:45.511Z,5.70
2018-10-21T17:33:14.455Z,6.25
2018-10-21T17:35:43.531Z,5.60
2018-10-21T17:38:12.465Z,4.47
2018-10-21T17:40:41.456Z,4.37
2018-10-21T17:43:10.618Z,4.33
2018-10-21T17:45:39.703Z,5.00
2018-10-21T17:48:08.634Z,5.28
2018-10-21T17:50:37.590Z,5.35
2018-10-21T17:53:06.483Z,5.55
2018-10-21T17:55:35.429Z,5.92
2018-10-21T17:58:05.049Z,6.08
2018-10-21T18:00:34.133Z,9.28
2018-10-21T18:03:03.161Z,16.15
2018-10-21T18:05:32.119Z,22.65
2018-10-21T18:08:01.053Z,23.80
2018-10-21T18:10:30.014Z,23.47
2018-10-21T18:12:59.034Z,11.80
2018-10-21T18:15:28.125Z,7.55
2018-10-21T18:17:57.039Z,6.55
2018-10-21T18:20:26.040Z,7.33
2018-10-21T18:22:55.169Z,8.00
2018-10-21T18:25:24.427Z,8.88
2018-10-21T18:27:53.352Z,8.83
2018-10-21T18:30:22.286Z,7.92
2018-10-21T18:32:51.220Z,8.45
2018-10-21T18:35:20.363Z,8.40
2018-10-21T18:37:49.289Z,7.70
2018-10-21T18:40:18.411Z,7.20
2018-10-21T18:42:47.579Z,7.20
2018-10-21T18:45:16.608Z,7.65
2018-10-21T18:47:45.552Z,14.15
2018-10-21T18:50:15.187Z,8.68
2018-10-21T18:52:44.212Z,9.53
2018-10-21T18:55:13.473Z,8.53
2018-10-21T18:57:42.583Z,8.38
2018-10-21T19:00:14.698Z,8.00
2018-10-21T19:02:43.642Z,8.18
2018-10-21T19:05:13.148Z,8.58
2018-10-21T19:07:42.474Z,7.67
2018-10-21T19:10:12.825Z,9.18
2018-10-21T19:12:42.295Z,8.35
2018-10-21T19:15:12.280Z,9.03
2018-10-21T19:17:41.828Z,8.93
2018-10-21T19:20:12.946Z,8.83
2018-10-21T19:22:42.108Z,9.55
2018-10-21T19:25:12.336Z,10.65
2018-10-21T19:27:41.797Z,10.60
2018-10-21T19:30:11.721Z,10.10
2018-10-21T19:32:41.172Z,10.25
2018-10-21T19:35:11.217Z,10.32
2018-10-21T19:37:40.295Z,10.85
2018-10-21T19:40:10.904Z,10.10
2018-10-21T19:42:40.033Z,12.95
2018-10-21T19:45:10.363Z,13.00
2018-10-21T19:47:39.547Z,11.88
2018-10-21T19:50:10.397Z,12.33
2018-10-21T19:52:39.223Z,12.53
2018-10-21T19:55:08.642Z,14.30
2018-10-21T19:57:37.560Z,12.85
2018-10-21T20:00:08.577Z,13.25
2018-10-21T20:02:37.527Z,13.45
2018-10-21T20:05:07.527Z,12.07
2018-10-21T20:07:36.527Z,12.63
2018-10-21T20:10:07.423Z,12.55
2018-10-21T20:12:36.671Z,12.18
2018-10-21T20:15:06.415Z,11.97
2018-10-21T20:17:35.333Z,12.73
2018-10-21T20:20:04.958Z,13.58
2018-10-21T20:22:33.885Z,12.53
2018-10-21T20:25:02.851Z,13.45
2018-10-21T20:27:31.920Z,13.75
2018-10-21T20:30:00.826Z,13.35
2018-10-21T20:32:29.796Z,13.08
2018-10-21T20:34:58.748Z,13.38
2018-10-21T20:37:27.742Z,12.70
2018-10-21T20:39:56.716Z,13.30
2018-10-21T20:42:26.133Z,13.78
2018-10-21T20:44:55.050Z,12.70
2018-10-21T20:47:23.434Z,12.95
2018-10-21T20:49:51.799Z,13.78
2018-10-21T20:52:20.751Z,13.25
2018-10-21T20:54:50.238Z,13.78
2018-10-21T20:57:18.594Z,14.43
2018-10-21T20:59:47.960Z,15.08
2018-10-21T21:02:16.795Z,13.80
2018-10-21T21:04:45.712Z,13.03
2018-10-21T21:07:14.662Z,13.53
2018-10-21T21:09:43.753Z,13.40
2018-10-21T21:12:12.719Z,15.05
2018-10-21T21:14:41.834Z,13.55
2018-10-21T21:17:10.756Z,13.60
2018-10-21T21:19:39.110Z,13.55
2018-10-21T21:22:07.559Z,13.62
2018-10-21T21:24:36.033Z,13.57
2018-10-21T21:27:05.304Z,13.97
2018-10-21T21:29:34.419Z,13.80
2018-10-21T21:32:02.785Z,12.67
2018-10-21T21:34:31.700Z,12.98
2018-10-21T21:37:00.096Z,14.07
2018-10-21T21:39:28.441Z,13.90
2018-10-21T21:41:56.812Z,13.40
2018-10-21T21:44:25.367Z,13.48
2018-10-21T21:46:54.291Z,13.38
2018-10-21T21:49:23.211Z,14.15
2018-10-21T21:51:52.151Z,14.93
2018-10-21T21:54:21.065Z,14.68
2018-10-21T21:56:49.437Z,13.53
2018-10-21T21:59:17.768Z,14.23
2018-10-21T22:01:46.187Z,13.43
2018-10-21T22:04:14.601Z,13.13
2018-10-21T22:06:43.113Z,12.30
2018-10-21T22:09:13.323Z,13.90
2018-10-21T22:11:42.267Z,12.78
2018-10-21T22:14:11.612Z,13.48
2018-10-21T22:16:40.543Z,14.47
2018-10-21T22:19:09.511Z,13.90
2018-10-21T22:21:38.597Z,13.87
2018-10-21T22:24:08.851Z,13.32
2018-10-21T22:26:37.841Z,13.37
2018-10-21T22:29:07.033Z,13.68
2018-10-21T22:31:35.978Z,13.30
2018-10-21T22:34:04.716Z,14.13
2018-10-21T22:36:33.299Z,13.73
2018-10-21T22:39:01.677Z,13.43
2018-10-21T22:41:30.557Z,12.88
2018-10-21T22:43:58.920Z,13.33
2018-10-21T22:46:28.207Z,14.05
2018-10-21T22:48:56.771Z,13.97
2018-10-21T22:51:25.145Z,13.35
2018-10-21T22:53:54.131Z,14.40
2018-10-21T22:56:23.207Z,13.32
2018-10-21T22:58:51.684Z,13.87
2018-10-21T23:01:20.033Z,14.63
2018-10-21T23:03:48.449Z,14.00
2018-10-21T23:06:17.481Z,14.18
2018-10-21T23:08:46.480Z,13.30
2018-10-21T23:11:14.824Z,14.63
2018-10-21T23:13:43.173Z,14.57
2018-10-21T23:16:11.567Z,15.07
2018-10-21T23:18:40.168Z,15.13
2018-10-21T23:21:08.631Z,15.28
2018-10-21T23:23:36.994Z,15.00
2018-10-21T23:26:05.509Z,15.20
2018-10-21T23:28:33.853Z,15.30
2018-10-21T23:31:02.784Z,14.47
2018-10-21T23:33:31.153Z,14.87
2018-10-21T23:36:00.109Z,15.43
2018-10-21T23:38:28.617Z,15.67
2018-10-21T23:40:56.960Z,14.10
2018-10-21T23:43:25.322Z,15.27
2018-10-21T23:45:54.106Z,15.07
2018-10-21T23:48:22.618Z,14.57
2018-10-21T23:50:50.962Z,15.80
2018-10-21T23:53:19.342Z,16.43
2018-10-21T23:55:47.668Z,15.90
2018-10-21T23:58:16.089Z,15.77
